| time (UTC) | temp F | wind direction | speed MPH | gust MPH | rain 1hr in | rain 24hr in | rain mn in | humidity % | barometer mb |
| 20260507103550 | 60 | 0 | 0.0 | 0.0 | 0.12 | 2.34 | 0.67 | 98 | 1010.5 |
| 20260507103058 | 60 | 0 | 0.0 | 1.0 | 0.11 | 2.33 | 0.65 | 98 | 1010.3 |
| 20260507102550 | 60 | 0 | 0.0 | 1.0 | 0.12 | 2.32 | 0.64 | 98 | 1010.5 |
| 20260507102050 | 60 | 0 | 0.0 | 1.0 | 0.10 | 2.30 | 0.62 | 98 | 1010.6 |
| 20260507101554 | 60 | 0 | 0.0 | 0.0 | 0.08 | 2.28 | 0.60 | 98 | 1011.8 |
| 20260507101055 | 60 | 0 | 0.0 | 0.0 | 0.06 | 2.26 | 0.58 | 98 | 1011.8 |
| 20260507100550 | 60 | 0 | 0.0 | 0.0 | 0.04 | 2.24 | 0.56 | 98 | 1011.6 |
| 20260507100111 | 60 | 0 | 0.0 | 0.0 | 0.03 | 2.23 | 0.55 | 98 | 1011.3 |
| 20260507095550 | 60 | 0 | 0.0 | 0.0 | 0.03 | 2.23 | 0.55 | 98 | 1010.7 |
| 20260507095052 | 60 | 0 | 0.0 | 0.0 | 0.03 | 2.23 | 0.55 | 98 | 1010.6 |
| 20260507094607 | 60 | 0 | 0.0 | 0.0 | 0.04 | 2.23 | 0.55 | 98 | 1010.4 |
| 20260507094053 | 60 | 0 | 0.0 | 0.0 | 0.04 | 2.23 | 0.55 | 98 | 1010.6 |
| 20260507093550 | 60 | 0 | 0.0 | 0.0 | 0.04 | 2.23 | 0.55 | 98 | 1011.0 |
| 20260507093110 | 60 | 0 | 0.0 | 0.0 | 0.03 | 2.22 | 0.54 | 98 | 1011.1 |
| 20260507092553 | 59 | 0 | 0.0 | 0.0 | 0.01 | 2.20 | 0.52 | 98 | 1011.4 |
| 20260507092053 | 59 | 0 | 0.0 | 0.0 | 0.01 | 2.20 | 0.52 | 98 | 1011.8 |
| 20260507091632 | 59 | 0 | 0.0 | 0.0 | 0.01 | 2.20 | 0.52 | 98 | 1010.1 |
| 20260507091054 | 60 | 0 | 0.0 | 0.0 | 0.01 | 2.20 | 0.52 | 98 | 1010.1 |
| 20260507090555 | 60 | 0 | 0.0 | 0.0 | 0.01 | 2.20 | 0.52 | 98 | 1010.1 |
| 20260507090055 | 60 | 0 | 0.0 | 0.0 | 0.01 | 2.20 | 0.52 | 98 | 1010.0 |
| 20260507085554 | 60 | 0 | 0.0 | 0.0 | 0.01 | 2.20 | 0.52 | 98 | 1010.2 |
| 20260507085054 | 60 | 0 | 0.0 | 0.0 | 0.00 | 2.19 | 0.51 | 98 | 1010.4 |
| 20260507084604 | 60 | 0 | 0.0 | 0.0 | 0.00 | 2.19 | 0.51 | 98 | 1010.3 |
| 20260507084054 | 60 | 0 | 0.0 | 0.0 | 0.00 | 2.19 | 0.51 | 98 | 1011.2 |
| 20260507083555 | 60 | 0 | 0.0 | 0.0 | 0.00 | 2.19 | 0.51 | 98 | 1011.6 |
| 20260507083055 | 60 | 0 | 0.0 | 0.0 | 0.00 | 2.19 | 0.51 | 98 | 1010.7 |
| 20260507082553 | 60 | 0 | 0.0 | 0.0 | 0.00 | 2.19 | 0.51 | 98 | 1010.7 |
| 20260507082053 | 60 | 0 | 0.0 | 0.0 | 0.00 | 2.19 | 0.51 | 98 | 1010.2 |
| 20260507081559 | 60 | 0 | 0.0 | 0.0 | 0.00 | 2.19 | 0.51 | 98 | 1010.3 |
| 20260507081054 | 60 | 0 | 0.0 | 0.0 | 0.00 | 2.19 | 0.51 | 98 | 1009.9 |
| 20260507080553 | 60 | 0 | 0.0 | 0.0 | 0.00 | 2.19 | 0.51 | 98 | 1010.1 |
| 20260507080105 | 60 | 0 | 0.0 | 0.0 | 0.00 | 2.19 | 0.51 | 98 | 1010.1 |
| 20260507075554 | 60 | 0 | 0.0 | 0.0 | 0.00 | 2.19 | 0.51 | 98 | 1010.2 |
| 20260507075053 | 60 | 0 | 0.0 | 0.0 | 0.00 | 2.19 | 0.51 | 98 | 1010.8 |
| 20260507074559 | 60 | 0 | 0.0 | 0.0 | 0.01 | 2.19 | 0.51 | 98 | 1010.9 |
| 20260507074056 | 60 | 0 | 0.0 | 0.0 | 0.01 | 2.19 | 0.51 | 98 | 1011.0 |
| 20260507073554 | 60 | 0 | 0.0 | 1.0 | 0.02 | 2.19 | 0.51 | 98 | 1010.9 |
| 20260507073055 | 60 | 0 | 0.0 | 1.0 | 0.08 | 2.19 | 0.51 | 98 | 1011.0 |
| 20260507072554 | 60 | 0 | 0.0 | 1.0 | 0.12 | 2.19 | 0.51 | 98 | 1011.2 |
| 20260507072053 | 60 | 0 | 0.0 | 0.0 | 0.12 | 2.19 | 0.51 | 98 | 1011.1 |
| 20260507071554 | 60 | 0 | 0.0 | 2.0 | 0.12 | 2.19 | 0.51 | 98 | 1011.1 |
| 20260507071056 | 60 | 0 | 0.0 | 2.0 | 0.12 | 2.19 | 0.51 | 98 | 1011.0 |
| 20260507070554 | 60 | 67 | 0.0 | 2.0 | 0.12 | 2.19 | 0.51 | 98 | 1011.0 |
| 20260507070052 | 60 | 0 | 0.0 | 2.0 | 0.13 | 2.19 | 0.51 | 98 | 1011.2 |
| 20260507065556 | 60 | 0 | 0.0 | 5.0 | 0.17 | 2.19 | 0.51 | 98 | 1011.4 |
| 20260507065053 | 60 | 343 | 2.0 | 5.0 | 0.17 | 2.19 | 0.51 | 98 | 1011.3 |
| 20260507064555 | 60 | 58 | 0.0 | 6.0 | 0.16 | 2.18 | 0.50 | 98 | 1011.3 |
| 20260507064053 | 60 | 53 | 2.0 | 6.0 | 0.16 | 2.18 | 0.50 | 98 | 1011.8 |
| 20260507063554 | 61 | 157 | 1.0 | 4.0 | 0.14 | 2.16 | 0.48 | 98 | 1012.0 |
| 20260507063055 | 61 | 310 | 2.0 | 6.0 | 0.08 | 2.09 | 0.42 | 98 | 1011.6 |
| 20260507062553 | 61 | 309 | 1.0 | 7.0 | 0.06 | 2.07 | 0.39 | 98 | 1013.1 |
| 20260507062053 | 61 | 98 | 3.0 | 7.0 | 0.07 | 2.07 | 0.39 | 98 | 1010.9 |
| 20260507061606 | 61 | 80 | 2.0 | 6.0 | 0.11 | 2.07 | 0.39 | 98 | 1010.6 |
| 20260507061056 | 61 | 43 | 2.0 | 4.0 | 0.14 | 2.07 | 0.39 | 98 | 1011.2 |
| 20260507060557 | 61 | 90 | 2.0 | 7.0 | 0.14 | 2.07 | 0.39 | 98 | 1011.4 |
| 20260507060100 | 61 | 107 | 1.0 | 7.0 | 0.13 | 2.06 | 0.38 | 98 | 1011.4 |
| 20260507055554 | 61 | 90 | 1.0 | 4.0 | 0.10 | 2.02 | 0.34 | 98 | 1011.6 |
| 20260507055054 | 61 | 0 | 1.0 | 5.0 | 0.10 | 2.02 | 0.34 | 98 | 1013.0 |
| 20260507054557 | 61 | 85 | 2.0 | 5.0 | 0.11 | 2.02 | 0.34 | 98 | 1011.9 |
| 20260507054056 | 61 | 42 | 1.0 | 4.0 | 0.12 | 2.02 | 0.34 | 98 | 1011.3 |
| 20260507053554 | 61 | 92 | 0.0 | 3.0 | 0.13 | 2.02 | 0.34 | 98 | 1011.9 |
| 20260507053059 | 61 | 0 | 0.0 | 3.0 | 0.15 | 2.02 | 0.34 | 98 | 1012.4 |
| 20260507052557 | 61 | 225 | 1.0 | 3.0 | 0.15 | 2.01 | 0.33 | 98 | 1012.3 |
| 20260507052053 | 61 | 293 | 2.0 | 3.0 | 0.15 | 2.00 | 0.32 | 98 | 1012.1 |
| 20260507051554 | 61 | 79 | 0.0 | 2.0 | 0.13 | 1.96 | 0.28 | 98 | 1012.2 |
| 20260507051057 | 61 | 79 | 0.0 | 2.0 | 0.14 | 1.93 | 0.25 | 98 | 1012.7 |
| 20260507050556 | 61 | 0 | 0.0 | 1.0 | 0.20 | 1.93 | 0.25 | 98 | 1012.8 |
| 20260507050057 | 61 | 0 | 0.0 | 3.0 | 0.25 | 1.93 | 0.25 | 98 | 1012.6 |
| 20260507045553 | 61 | 0 | 0.0 | 3.0 | 0.26 | 1.92 | 0.24 | 98 | 1013.0 |
| 20260507045054 | 61 | 0 | 1.0 | 3.0 | 0.32 | 1.92 | 0.24 | 98 | 1012.9 |
| 20260507044605 | 61 | 38 | 0.0 | 2.0 | 0.32 | 1.90 | 0.22 | 98 | 1013.1 |
| 20260507044053 | 61 | 0 | 0.0 | 2.0 | 0.32 | 1.90 | 0.22 | 98 | 1012.9 |
| 20260507043553 | 61 | 85 | 0.0 | 3.0 | 0.30 | 1.88 | 0.20 | 98 | 1012.7 |
| 20260507043104 | 61 | 0 | 1.0 | 3.0 | 0.29 | 1.87 | 0.19 | 98 | 1013.5 |
| 20260507042554 | 61 | 25 | 1.0 | 2.0 | 0.28 | 1.86 | 0.18 | 98 | 1012.9 |
| 20260507042054 | 61 | 0 | 0.0 | 1.0 | 0.27 | 1.85 | 0.17 | 98 | 1013.5 |
| 20260507041557 | 61 | 0 | 0.0 | 1.0 | 0.25 | 1.83 | 0.15 | 98 | 1013.8 |
| 20260507041055 | 61 | 0 | 0.0 | 2.0 | 0.21 | 1.79 | 0.11 | 97 | 1013.6 |
| 20260507040554 | 61 | 116 | 0.0 | 2.0 | 0.15 | 1.73 | 0.05 | 97 | 1013.3 |
| 20260507040054 | 61 | 222 | 1.0 | 2.0 | 0.11 | 1.68 | 0.00 | 97 | 1013.8 |
| 20260507035553 | 61 | 0 | 0.0 | 2.0 | 0.09 | 1.66 | 1.66 | 97 | 1013.9 |
| 20260507035053 | 61 | 244 | 0.0 | 2.0 | 0.03 | 1.60 | 1.60 | 97 | 1013.3 |
| 20260507034554 | 61 | 155 | 0.0 | 2.0 | 0.01 | 1.58 | 1.58 | 97 | 1013.4 |
| 20260507034053 | 61 | 155 | 0.0 | 2.0 | 0.01 | 1.58 | 1.58 | 97 | 1013.1 |
| 20260507033554 | 61 | 0 | 0.0 | 0.0 | 0.01 | 1.58 | 1.58 | 97 | 1013.7 |
| 20260507033055 | 61 | 0 | 0.0 | 0.0 | 0.01 | 1.58 | 1.58 | 97 | 1012.4 |
| 20260507032557 | 61 | 0 | 0.0 | 0.0 | 0.01 | 1.58 | 1.58 | 97 | 1012.5 |
| 20260507032053 | 61 | 0 | 0.0 | 0.0 | 0.01 | 1.58 | 1.58 | 97 | 1012.3 |
| 20260507031552 | 61 | 0 | 0.0 | 0.0 | 0.01 | 1.58 | 1.58 | 98 | 1012.6 |
| 20260507031058 | 61 | 0 | 0.0 | 0.0 | 0.01 | 1.58 | 1.58 | 98 | 1012.8 |
| 20260507030554 | 61 | 0 | 0.0 | 2.0 | 0.00 | 1.57 | 1.57 | 97 | 1012.9 |
| 20260507030055 | 61 | 0 | 0.0 | 2.0 | 0.00 | 1.57 | 1.57 | 98 | 1013.1 |
| 20260507025553 | 61 | 88 | 0.0 | 1.0 | 0.00 | 1.57 | 1.57 | 98 | 1013.0 |
| 20260507025057 | 61 | 0 | 0.0 | 0.0 | 0.00 | 1.57 | 1.57 | 97 | 1012.8 |
| 20260507024556 | 61 | 0 | 0.0 | 1.0 | 0.00 | 1.57 | 1.57 | 97 | 1012.9 |
| 20260507024054 | 61 | 0 | 0.0 | 1.0 | 0.00 | 1.57 | 1.57 | 97 | 1012.9 |
| 20260507023553 | 61 | 88 | 0.0 | 1.0 | 0.00 | 1.57 | 1.57 | 97 | 1013.0 |
| 20260507023107 | 61 | 0 | 0.0 | 1.0 | 0.00 | 1.57 | 1.57 | 97 | 1012.9 |
| 20260507022553 | 61 | 0 | 0.0 | 0.0 | 0.00 | 1.57 | 1.57 | 97 | 1012.9 |
| 20260507022053 | 61 | 0 | 0.0 | 0.0 | 0.00 | 1.57 | 1.57 | 97 | 1013.1 |
| 20260507021553 | 61 | 0 | 0.0 | 0.0 | 0.00 | 1.57 | 1.57 | 97 | 1013.0 |
| 20260507021054 | 61 | 0 | 0.0 | 1.0 | 0.00 | 1.57 | 1.57 | 97 | 1013.0 |
| 20260507020554 | 61 | 0 | 0.0 | 1.0 | 0.00 | 1.57 | 1.57 | 97 | 1013.0 |
| 20260507015553 | 61 | 0 | 0.0 | 2.0 | 0.01 | 1.57 | 1.57 | 97 | 1013.0 |
| 20260507015053 | 61 | 0 | 0.0 | 1.0 | 0.02 | 1.57 | 1.57 | 97 | 1012.9 |
| 20260507014602 | 61 | 224 | 0.0 | 1.0 | 0.06 | 1.57 | 1.57 | 97 | 1012.8 |
| 20260507014055 | 61 | 0 | 0.0 | 1.0 | 0.06 | 1.57 | 1.57 | 97 | 1012.9 |
| 20260507013554 | 61 | 0 | 0.0 | 2.0 | 0.06 | 1.57 | 1.57 | 97 | 1013.0 |
| 20260507013054 | 61 | 0 | 0.0 | 4.0 | 0.06 | 1.57 | 1.57 | 97 | 1013.2 |
| 20260507012554 | 61 | 241 | 0.0 | 4.0 | 0.06 | 1.57 | 1.57 | 97 | 1013.1 |
| 20260507012054 | 61 | 80 | 1.0 | 4.0 | 0.06 | 1.57 | 1.57 | 97 | 1012.9 |
| 20260507011555 | 61 | 0 | 0.0 | 2.0 | 0.06 | 1.57 | 1.57 | 97 | 1013.3 |
| 20260507011053 | 61 | 0 | 0.0 | 2.0 | 0.06 | 1.57 | 1.57 | 97 | 1013.1 |
| 20260507010554 | 61 | 286 | 0.0 | 2.0 | 0.06 | 1.57 | 1.57 | 97 | 1013.4 |
| 20260507010052 | 61 | 134 | 0.0 | 0.0 | 0.05 | 1.56 | 1.56 | 97 | 1013.4 |
| 20260507005556 | 61 | 0 | 0.0 | 0.0 | 0.06 | 1.56 | 1.56 | 97 | 1013.3 |
| 20260507005057 | 61 | 0 | 0.0 | 0.0 | 0.04 | 1.54 | 1.54 | 97 | 1013.5 |
| 20260507004557 | 61 | 0 | 0.0 | 0.0 | 0.01 | 1.51 | 1.51 | 97 | 1014.8 |
| 20260507004055 | 61 | 0 | 0.0 | 0.0 | 0.03 | 1.51 | 1.51 | 97 | 1014.2 |
| 20260507003555 | 61 | 0 | 0.0 | 0.0 | 0.09 | 1.51 | 1.51 | 97 | 1013.9 |
| 20260507003106 | 61 | 0 | 0.0 | 3.0 | 0.13 | 1.51 | 1.51 | 97 | 1013.4 |
| 20260507002554 | 61 | 0 | 0.0 | 3.0 | 0.14 | 1.51 | 1.51 | 97 | 1013.6 |
| 20260507002054 | 62 | 0 | 1.0 | 3.0 | 0.15 | 1.51 | 1.51 | 97 | 1013.8 |
| 20260507001614 | 62 | 195 | 1.0 | 3.0 | 0.16 | 1.51 | 1.51 | 97 | 1013.5 |
| 20260507001054 | 62 | 0 | 0.0 | 1.0 | 0.16 | 1.51 | 1.51 | 97 | 1014.0 |
| 20260507000556 | 62 | 0 | 0.0 | 1.0 | 0.16 | 1.51 | 1.51 | 97 | 1013.8 |
| 20260507000056 | 62 | 0 | 0.0 | 2.0 | 0.19 | 1.51 | 1.51 | 97 | 1013.7 |
| 20260506235554 | 62 | 0 | 0.0 | 2.0 | 0.19 | 1.50 | 1.50 | 97 | 1013.8 |
| 20260506235053 | 62 | 226 | 0.0 | 2.0 | 0.20 | 1.50 | 1.50 | 97 | 1013.7 |
| 20260506234555 | 62 | 226 | 1.0 | 6.0 | 0.21 | 1.50 | 1.50 | 97 | 1013.6 |
| 20260506234058 | 62 | 308 | 1.0 | 6.0 | 0.19 | 1.48 | 1.48 | 97 | 1013.5 |
| 20260506233554 | 62 | 71 | 0.0 | 3.0 | 0.13 | 1.42 | 1.42 | 97 | 1013.2 |
| 20260506233058 | 62 | 0 | 0.0 | 0.0 | 0.10 | 1.38 | 1.38 | 97 | 1013.3 |
| 20260506232553 | 62 | 0 | 0.0 | 1.0 | 0.11 | 1.37 | 1.37 | 97 | 1012.8 |
| 20260506232053 | 62 | 0 | 0.0 | 2.0 | 0.10 | 1.36 | 1.36 | 97 | 1012.4 |
| 20260506231605 | 62 | 0 | 0.0 | 4.0 | 0.09 | 1.35 | 1.35 | 97 | 1012.3 |
| 20260506231054 | 62 | 96 | 0.0 | 6.0 | 0.10 | 1.35 | 1.35 | 97 | 1012.2 |
| 20260506230554 | 62 | 66 | 2.0 | 6.0 | 0.14 | 1.35 | 1.35 | 97 | 1012.3 |
| 20260506225557 | 62 | 108 | 0.0 | 6.0 | 0.13 | 1.31 | 1.31 | 97 | 1013.2 |
| 20260506225053 | 62 | 88 | 2.0 | 5.0 | 0.14 | 1.30 | 1.30 | 97 | 1012.6 |
| 20260506224554 | 62 | 0 | 1.0 | 3.0 | 0.15 | 1.29 | 1.29 | 97 | 1013.5 |
| 20260506224054 | 63 | 5 | 0.0 | 4.0 | 0.15 | 1.29 | 1.29 | 97 | 1012.9 |
| 20260506223558 | 63 | 62 | 2.0 | 4.0 | 0.15 | 1.29 | 1.29 | 97 | 1012.8 |
| 20260506223058 | 63 | 109 | 0.0 | 4.0 | 0.13 | 1.27 | 1.27 | 97 | 1012.7 |
| 20260506222557 | 63 | 109 | 1.0 | 4.0 | 0.12 | 1.26 | 1.26 | 97 | 1012.9 |
| 20260506222057 | 63 | 96 | 1.0 | 4.0 | 0.12 | 1.26 | 1.26 | 97 | 1012.9 |
| 20260506221605 | 63 | 0 | 0.0 | 0.0 | 0.12 | 1.26 | 1.26 | 97 | 1013.2 |
| 20260506221053 | 63 | 0 | 0.0 | 0.0 | 0.11 | 1.25 | 1.25 | 96 | 1013.0 |
| 20260506220554 | 63 | 0 | 0.0 | 0.0 | 0.07 | 1.21 | 1.21 | 96 | 1013.3 |
| 20260506220055 | 63 | 0 | 0.0 | 0.0 | 0.08 | 1.21 | 1.21 | 96 | 1013.2 |
| 20260506215557 | 63 | 0 | 0.0 | 0.0 | 0.09 | 1.17 | 1.17 | 97 | 1013.2 |
| 20260506215056 | 63 | 0 | 0.0 | 1.0 | 0.07 | 1.16 | 1.16 | 97 | 1013.4 |
| 20260506214556 | 63 | 0 | 0.0 | 2.0 | 0.06 | 1.14 | 1.14 | 96 | 1013.0 |
| 20260506214054 | 63 | 0 | 0.0 | 2.0 | 0.08 | 1.14 | 1.14 | 96 | 1012.9 |
| 20260506213553 | 63 | 93 | 0.0 | 2.0 | 0.14 | 1.14 | 1.14 | 97 | 1012.9 |
| 20260506213051 | 63 | 0 | 0.0 | 3.0 | 0.32 | 1.14 | 1.14 | 96 | 1012.9 |
| 20260506212553 | 63 | 0 | 0.0 | 3.0 | 0.48 | 1.14 | 1.14 | 96 | 1012.8 |
| 20260506212055 | 63 | 85 | 0.0 | 2.0 | 0.52 | 1.14 | 1.14 | 96 | 1012.8 |
| 20260506211558 | 63 | 0 | 0.0 | 2.0 | 0.55 | 1.14 | 1.14 | 96 | 1012.8 |
| 20260506211053 | 63 | 86 | 0.0 | 2.0 | 0.56 | 1.14 | 1.14 | 96 | 1012.7 |
| 20260506210553 | 63 | 86 | 0.0 | 2.0 | 0.57 | 1.14 | 1.14 | 96 | 1012.8 |
| 20260506210059 | 63 | 52 | 0.0 | 2.0 | 0.56 | 1.13 | 1.13 | 96 | 1012.8 |
| 20260506205556 | 63 | 18 | 0.0 | 2.0 | 0.52 | 1.09 | 1.09 | 96 | 1013.2 |
| 20260506205054 | 63 | 0 | 0.0 | 2.0 | 0.52 | 1.09 | 1.09 | 96 | 1012.7 |
| 20260506204558 | 63 | 0 | 0.0 | 2.0 | 0.52 | 1.07 | 1.07 | 95 | 1012.8 |
| 20260506204053 | 63 | 0 | 0.0 | 2.0 | 0.52 | 1.05 | 1.05 | 95 | 1012.9 |
| 20260506203553 | 63 | 0 | 0.0 | 2.0 | 0.46 | 0.99 | 0.99 | 95 | 1013.4 |
| 20260506203119 | 64 | 0 | 0.0 | 3.0 | 0.31 | 0.82 | 0.82 | 95 | 1013.5 |
| 20260506202553 | 64 | 0 | 0.0 | 3.0 | 0.17 | 0.66 | 0.66 | 96 | 1013.6 |
| 20260506202053 | 64 | 309 | 0.0 | 2.0 | 0.15 | 0.61 | 0.61 | 96 | 1013.7 |
| 20260506201556 | 64 | 0 | 0.0 | 1.0 | 0.15 | 0.58 | 0.58 | 96 | 1013.2 |
| 20260506201057 | 64 | 0 | 0.0 | 3.0 | 0.17 | 0.58 | 0.58 | 95 | 1013.2 |
| 20260506200557 | 64 | 0 | 1.0 | 3.0 | 0.18 | 0.57 | 0.57 | 95 | 1013.1 |
| 20260506200057 | 65 | 0 | 0.0 | 3.0 | 0.19 | 0.57 | 0.57 | 95 | 1013.3 |
| 20260506195553 | 65 | 76 | 1.0 | 3.0 | 0.18 | 0.56 | 0.56 | 95 | 1013.2 |
| 20260506195054 | 65 | 175 | 1.0 | 3.0 | 0.18 | 0.56 | 0.56 | 95 | 1013.5 |
| 20260506194600 | 65 | 134 | 1.0 | 3.0 | 0.17 | 0.55 | 0.55 | 95 | 1013.7 |
| 20260506194053 | 65 | 139 | 0.0 | 2.0 | 0.16 | 0.54 | 0.54 | 95 | 1013.4 |
| 20260506193553 | 65 | 0 | 1.0 | 2.0 | 0.14 | 0.52 | 0.52 | 94 | 1013.5 |
| 20260506193104 | 65 | 0 | 0.0 | 2.0 | 0.12 | 0.50 | 0.50 | 94 | 1013.6 |
| 20260506192554 | 65 | 0 | 0.0 | 3.0 | 0.10 | 0.48 | 0.48 | 94 | 1013.5 |
| 20260506192053 | 66 | 93 | 1.0 | 3.0 | 0.08 | 0.46 | 0.46 | 94 | 1013.2 |
| 20260506191552 | 66 | 142 | 0.0 | 2.0 | 0.06 | 0.44 | 0.44 | 94 | 1013.5 |
| 20260506191053 | 66 | 0 | 0.0 | 2.0 | 0.03 | 0.41 | 0.41 | 93 | 1013.6 |
| 20260506190554 | 66 | 0 | 0.0 | 1.0 | 0.01 | 0.39 | 0.39 | 93 | 1014.0 |
| 20260506190055 | 66 | 0 | 0.0 | 1.0 | 0.00 | 0.38 | 0.38 | 93 | 1013.9 |
| 20260506185552 | 66 | 58 | 0.0 | 2.0 | 0.00 | 0.38 | 0.38 | 93 | 1013.8 |
| 20260506185053 | 66 | 0 | 0.0 | 2.0 | 0.00 | 0.38 | 0.38 | 93 | 1013.9 |
| 20260506184553 | 66 | 58 | 0.0 | 2.0 | 0.00 | 0.38 | 0.38 | 93 | 1013.8 |
| 20260506184054 | 66 | 0 | 0.0 | 3.0 | 0.00 | 0.38 | 0.38 | 93 | 1014.0 |
| 20260506183556 | 66 | 106 | 0.0 | 3.0 | 0.00 | 0.38 | 0.38 | 93 | 1014.1 |
| 20260506183103 | 66 | 99 | 0.0 | 4.0 | 0.00 | 0.38 | 0.38 | 94 | 1014.1 |
| 20260506182553 | 66 | 25 | 0.0 | 4.0 | 0.00 | 0.38 | 0.38 | 93 | 1014.3 |
| 20260506182053 | 66 | 18 | 0.0 | 3.0 | 0.00 | 0.38 | 0.38 | 93 | 1014.4 |
| 20260506181556 | 66 | 0 | 0.0 | 2.0 | 0.00 | 0.38 | 0.38 | 93 | 1014.5 |
| 20260506181050 | 66 | 0 | 0.0 | 2.0 | 0.00 | 0.38 | 0.38 | 93 | 1014.6 |
| 20260506180553 | 66 | 81 | 0.0 | 2.0 | 0.00 | 0.38 | 0.38 | 93 | 1014.4 |
| 20260506180055 | 66 | 0 | 0.0 | 2.0 | 0.00 | 0.38 | 0.38 | 92 | 1014.5 |
| 20260506175552 | 66 | 0 | 0.0 | 2.0 | 0.00 | 0.38 | 0.38 | 92 | 1014.5 |
| 20260506175057 | 67 | 0 | 0.0 | 2.0 | 0.00 | 0.38 | 0.38 | 93 | 1014.5 |
| 20260506174555 | 66 | 0 | 0.0 | 2.0 | 0.00 | 0.38 | 0.38 | 92 | 1014.3 |
| 20260506174054 | 67 | 0 | 0.0 | 2.0 | 0.00 | 0.38 | 0.38 | 92 | 1014.5 |
| 20260506173554 | 67 | 320 | 1.0 | 4.0 | 0.00 | 0.38 | 0.38 | 94 | 1014.4 |
| 20260506173059 | 67 | 5 | 0.0 | 4.0 | 0.00 | 0.38 | 0.38 | 94 | 1014.4 |
| 20260506172554 | 67 | 15 | 1.0 | 5.0 | 0.00 | 0.38 | 0.38 | 94 | 1014.2 |
| 20260506172053 | 67 | 117 | 1.0 | 5.0 | 0.00 | 0.38 | 0.38 | 96 | 1014.1 |
| 20260506171554 | 66 | 252 | 1.0 | 6.0 | 0.00 | 0.38 | 0.38 | 95 | 1014.2 |
| 20260506171054 | 66 | 333 | 1.0 | 6.0 | 0.00 | 0.38 | 0.38 | 95 | 1014.0 |
| 20260506170554 | 66 | 5 | 1.0 | 5.0 | 0.00 | 0.38 | 0.38 | 96 | 1014.0 |
| 20260506170057 | 65 | 49 | 1.0 | 5.0 | 0.00 | 0.38 | 0.38 | 96 | 1014.0 |
| 20260506165553 | 65 | 352 | 1.0 | 5.0 | 0.00 | 0.38 | 0.38 | 96 | 1013.8 |
| 20260506165053 | 65 | 24 | 2.0 | 5.0 | 0.00 | 0.38 | 0.38 | 96 | 1013.8 |
| 20260506164624 | 64 | 0 | 1.0 | 9.0 | 0.00 | 0.38 | 0.38 | 96 | 1014.0 |
| 20260506164053 | 64 | 14 | 2.0 | 9.0 | 0.01 | 0.38 | 0.38 | 96 | 1014.0 |
| 20260506163554 | 64 | 31 | 1.0 | 6.0 | 0.02 | 0.38 | 0.38 | 96 | 1014.0 |
| 20260506163108 | 64 | 89 | 1.0 | 5.0 | 0.04 | 0.38 | 0.38 | 96 | 1014.3 |
| 20260506162554 | 64 | 10 | 1.0 | 4.0 | 0.05 | 0.38 | 0.38 | 96 | 1014.6 |
| 20260506162055 | 64 | 5 | 0.0 | 0.0 | 0.06 | 0.38 | 0.38 | 96 | 1014.3 |
| 20260506161559 | 64 | 0 | 0.0 | 0.0 | 0.06 | 0.38 | 0.38 | 96 | 1014.3 |
| 20260506161055 | 64 | 0 | 0.0 | 2.0 | 0.06 | 0.38 | 0.38 | 97 | 1014.2 |
| 20260506160553 | 63 | 0 | 0.0 | 2.0 | 0.07 | 0.38 | 0.38 | 96 | 1014.3 |
| 20260506160122 | 63 | 0 | 0.0 | 2.0 | 0.09 | 0.38 | 0.38 | 96 | 1014.6 |
| 20260506155553 | 62 | 42 | 0.0 | 2.0 | 0.12 | 0.38 | 0.38 | 96 | 1014.9 |
| 20260506155053 | 62 | 0 | 0.0 | 3.0 | 0.15 | 0.38 | 0.38 | 96 | 1015.2 |
| 20260506154559 | 62 | 0 | 0.0 | 3.0 | 0.18 | 0.38 | 0.38 | 96 | 1015.3 |
| 20260506154054 | 62 | 0 | 0.0 | 2.0 | 0.21 | 0.37 | 0.37 | 96 | 1015.4 |
| 20260506153558 | 62 | 0 | 0.0 | 2.0 | 0.23 | 0.36 | 0.36 | 95 | 1015.0 |
| 20260506153057 | 62 | 51 | 0.0 | 2.0 | 0.24 | 0.34 | 0.34 | 95 | 1015.8 |
| 20260506152554 | 62 | 0 | 0.0 | 1.0 | 0.25 | 0.33 | 0.33 | 95 | 1015.8 |
| 20260506152056 | 62 | 0 | 0.0 | 1.0 | 0.25 | 0.32 | 0.32 | 95 | 1015.7 |
| 20260506151604 | 62 | 0 | 0.0 | 3.0 | 0.25 | 0.32 | 0.32 | 95 | 1015.6 |
| 20260506151053 | 62 | 0 | 1.0 | 4.0 | 0.25 | 0.32 | 0.32 | 95 | 1015.5 |
| 20260506150553 | 62 | 28 | 1.0 | 4.0 | 0.24 | 0.31 | 0.31 | 95 | 1015.3 |
| 20260506145554 | 62 | 19 | 1.0 | 4.0 | 0.20 | 0.26 | 0.26 | 95 | 1015.1 |
| 20260506145052 | 62 | 5 | 0.0 | 5.0 | 0.18 | 0.23 | 0.23 | 94 | 1015.0 |
| 20260506144603 | 62 | 42 | 2.0 | 5.0 | 0.18 | 0.20 | 0.20 | 94 | 1014.9 |
| 20260506144053 | 62 | 95 | 1.0 | 3.0 | 0.14 | 0.16 | 0.16 | 94 | 1014.8 |
| 20260506143554 | 62 | 5 | 1.0 | 3.0 | 0.11 | 0.13 | 0.13 | 94 | 1014.7 |
| 20260506143054 | 62 | 0 | 0.0 | 2.0 | 0.08 | 0.10 | 0.10 | 94 | 1014.7 |
| 20260506142554 | 62 | 9 | 0.0 | 2.0 | 0.06 | 0.08 | 0.08 | 93 | 1014.7 |
| 20260506142052 | 62 | 9 | 0.0 | 2.0 | 0.05 | 0.07 | 0.07 | 93 | 1014.3 |
| 20260506141553 | 62 | 5 | 0.0 | 2.0 | 0.05 | 0.07 | 0.07 | 93 | 1014.0 |
| 20260506141053 | 62 | 58 | 0.0 | 2.0 | 0.05 | 0.07 | 0.07 | 93 | 1013.9 |
| 20260506140553 | 62 | 58 | 0.0 | 4.0 | 0.05 | 0.07 | 0.07 | 93 | 1013.9 |
| 20260506140055 | 62 | 0 | 0.0 | 4.0 | 0.05 | 0.07 | 0.07 | 93 | 1014.1 |
| 20260506135554 | 62 | 321 | 0.0 | 4.0 | 0.04 | 0.06 | 0.06 | 92 | 1014.0 |
| 20260506135053 | 62 | 346 | 1.0 | 4.0 | 0.03 | 0.05 | 0.05 | 92 | 1013.5 |
| 20260506134552 | 63 | 0 | 1.0 | 3.0 | 0.00 | 0.02 | 0.02 | 93 | 1014.1 |
| 20260506134057 | 63 | 300 | 0.0 | 2.0 | 0.00 | 0.02 | 0.02 | 93 | 1014.1 |
| 20260506133553 | 63 | 0 | 0.0 | 1.0 | 0.00 | 0.02 | 0.02 | 93 | 1013.9 |
| 20260506133108 | 63 | 0 | 0.0 | 1.0 | 0.00 | 0.02 | 0.02 | 92 | 1014.0 |
| 20260506132552 | 63 | 0 | 0.0 | 1.0 | 0.00 | 0.02 | 0.02 | 92 | 1013.6 |
| 20260506132053 | 62 | 0 | 0.0 | 1.0 | 0.00 | 0.02 | 0.02 | 92 | 1013.7 |
| 20260506131611 | 62 | 0 | 0.0 | 4.0 | 0.00 | 0.02 | 0.02 | 92 | 1013.6 |
| 20260506131053 | 62 | 0 | 0.0 | 4.0 | 0.00 | 0.02 | 0.02 | 92 | 1013.6 |
| 20260506130554 | 62 | 51 | 0.0 | 2.0 | 0.00 | 0.02 | 0.02 | 93 | 1013.4 |
| 20260506130053 | 62 | 0 | 0.0 | 2.0 | 0.01 | 0.02 | 0.02 | 92 | 1013.5 |
| 20260506125553 | 62 | 0 | 0.0 | 2.0 | 0.02 | 0.02 | 0.02 | 92 | 1013.4 |
| 20260506125053 | 62 | 0 | 1.0 | 2.0 | 0.02 | 0.02 | 0.02 | 92 | 1013.4 |
| 20260506124556 | 62 | 0 | 0.0 | 2.0 | 0.02 | 0.02 | 0.02 | 91 | 1013.4 |
| 20260506124054 | 62 | 0 | 0.0 | 1.0 | 0.02 | 0.02 | 0.02 | 91 | 1013.7 |
| 20260506123554 | 62 | 0 | 0.0 | 1.0 | 0.02 | 0.02 | 0.02 | 91 | 1013.4 |
| 20260506123056 | 62 | 0 | 0.0 | 2.0 | 0.02 | 0.02 | 0.02 | 90 | 1013.3 |
| 20260506122554 | 62 | 0 | 0.0 | 2.0 | 0.02 | 0.02 | 0.02 | 90 | 1013.2 |
| 20260506122052 | 62 | 63 | 0.0 | 2.0 | 0.02 | 0.02 | 0.02 | 89 | 1013.1 |
| 20260506121557 | 62 | 66 | 0.0 | 2.0 | 0.02 | 0.02 | 0.02 | 88 | 1013.3 |
| 20260506121054 | 62 | 0 | 1.0 | 3.0 | 0.02 | 0.02 | 0.02 | 87 | 1013.2 |
| 20260506120554 | 62 | 0 | 0.0 | 4.0 | 0.02 | 0.02 | 0.02 | 87 | 1013.4 |
| 20260506115555 | 63 | 225 | 1.0 | 4.0 | 0.00 | 0.00 | 0.00 | 85 | 1013.5 |
| 20260506115053 | 63 | 45 | 0.0 | 2.0 | 0.00 | 0.00 | 0.00 | 85 | 1013.4 |
| 20260506114554 | 63 | 0 | 0.0 | 2.0 | 0.00 | 0.00 | 0.00 | 84 | 1013.3 |
| 20260506114056 | 63 | 45 | 0.0 | 2.0 | 0.00 | 0.00 | 0.00 | 84 | 1013.2 |
| 20260506113553 | 63 | 0 | 0.0 | 2.0 | 0.00 | 0.00 | 0.00 | 83 | 1013.0 |
| 20260506113051 | 63 | 0 | 0.0 | 0.0 | 0.00 | 0.00 | 0.00 | 83 | 1013.1 |
| 20260506112553 | 63 | 0 | 0.0 | 2.0 | 0.00 | 0.00 | 0.00 | 83 | 1013.1 |
| 20260506112054 | 64 | 0 | 0.0 | 2.0 | 0.00 | 0.00 | 0.00 | 82 | 1013.1 |
| 20260506111555 | 64 | 179 | 0.0 | 2.0 | 0.00 | 0.00 | 0.00 | 81 | 1012.9 |
| 20260506111053 | 64 | 0 | 0.0 | 2.0 | 0.00 | 0.00 | 0.00 | 80 | 1012.5 |
| 20260506110553 | 65 | 0 | 0.0 | 2.0 | 0.00 | 0.00 | 0.00 | 79 | 1012.6 |
| 20260506110113 | 65 | 0 | 1.0 | 3.0 | 0.00 | 0.00 | 0.00 | 77 | 1012.4 |
| 20260506105553 | 65 | 50 | 0.0 | 3.0 | 0.00 | 0.00 | 0.00 | 77 | 1012.5 |
| 20260506105053 | 65 | 0 | 0.0 | 3.0 | 0.00 | 0.00 | 0.00 | 76 | 1012.8 |
| 20260506104612 | 65 | 55 | 0.0 | 4.0 | 0.00 | 0.00 | 0.00 | 77 | 1012.9 |
| 20260506104054 | 65 | 284 | 0.0 | 9.0 | 0.00 | 0.00 | 0.00 | 78 | 1012.9 |